Anaheim Hills, California
Current Conditions -  °F | °C
As of 7:56 PM on Friday 31 Oct 2014 (Local Time) from KAJO Reporting Station
Overcast Overcast  
Wind Chill: 65°   Ceiling: 100
Heat Index: 65°   Visibility: 10mi
Dew Point: 54°   Wind: 5mph
Humidity: 68%   Direction: 300°WNW
Pressure: 29.85"   Gusts: NA
Location:  33.8431°N, 117.777°W
Report Text: KAJO 010256Z AUTO 30004KT 10SM OVC001 18/12 A2985 RMK AO2 56005 T01830122 SLP106 $
Loading
Personal Weather Stations






























Interactive Weather Map
Tropical Storm Tracking
New forecast layout! Learn more

10-Day Weather Forecast

Advertisements
Track Severe Weather on mobile